sensor_id;sensor_type;location;lat;lon;timestamp;pressure;altitude;pressure_sealevel;temperature;humidity
5679;BME280;2862;52.560;13.566;2022-10-16T00:06:35;100277.38;;;14.90;97.62
5679;BME280;2862;52.560;13.566;2022-10-16T00:16:41;100284.25;;;14.84;98.03
5679;BME280;2862;52.560;13.566;2022-10-16T00:26:49;100288.31;;;14.88;98.28
5679;BME280;2862;52.560;13.566;2022-10-16T00:36:52;100300.47;;;15.08;97.08
5679;BME280;2862;52.560;13.566;2022-10-16T00:46:57;100321.16;;;15.16;96.87
5679;BME280;2862;52.560;13.566;2022-10-16T00:57:02;100312.06;;;15.09;97.59
5679;BME280;2862;52.560;13.566;2022-10-16T01:07:12;100319.97;;;15.19;96.85
5679;BME280;2862;52.560;13.566;2022-10-16T01:17:19;100331.06;;;15.07;97.78
5679;BME280;2862;52.560;13.566;2022-10-16T01:27:27;100328.88;;;15.11;97.59
5679;BME280;2862;52.560;13.566;2022-10-16T01:37:36;100336.09;;;14.94;98.44
5679;BME280;2862;52.560;13.566;2022-10-16T01:47:43;100343.66;;;14.82;99.42
5679;BME280;2862;52.560;13.566;2022-10-16T01:57:49;100339.63;;;14.95;98.87
5679;BME280;2862;52.560;13.566;2022-10-16T02:07:54;100350.88;;;14.90;99.85
5679;BME280;2862;52.560;13.566;2022-10-16T02:17:57;100349.72;;;14.93;100.00
5679;BME280;2862;52.560;13.566;2022-10-16T02:28:04;100379.22;;;15.10;99.55
5679;BME280;2862;52.560;13.566;2022-10-16T02:38:09;100365.41;;;15.13;99.63
5679;BME280;2862;52.560;13.566;2022-10-16T02:48:15;100380.91;;;15.28;99.20
5679;BME280;2862;52.560;13.566;2022-10-16T02:58:18;100383.97;;;15.41;98.01
5679;BME280;2862;52.560;13.566;2022-10-16T03:08:22;100383.81;;;15.43;97.93
5679;BME280;2862;52.560;13.566;2022-10-16T03:18:27;100388.84;;;15.46;97.25
5679;BME280;2862;52.560;13.566;2022-10-16T03:28:31;100403.34;;;15.45;97.31
5679;BME280;2862;52.560;13.566;2022-10-16T03:38:34;100408.38;;;15.39;97.05
5679;BME280;2862;52.560;13.566;2022-10-16T03:48:38;100429.06;;;15.31;97.58
5679;BME280;2862;52.560;13.566;2022-10-16T03:58:42;100454.81;;;15.25;98.20
5679;BME280;2862;52.560;13.566;2022-10-16T04:08:46;100453.66;;;15.20;98.59
5679;BME280;2862;52.560;13.566;2022-10-16T04:18:49;100466.22;;;15.11;99.30
5679;BME280;2862;52.560;13.566;2022-10-16T04:28:54;100474.97;;;15.05;99.57
5679;BME280;2862;52.560;13.566;2022-10-16T04:38:57;100458.44;;;14.92;100.00
5679;BME280;2862;52.560;13.566;2022-10-16T04:49:01;100449.63;;;14.81;100.00
5679;BME280;2862;52.560;13.566;2022-10-16T04:59:10;100454.03;;;14.91;100.00
5679;BME280;2862;52.560;13.566;2022-10-16T05:09:43;100456.56;;;14.92;99.87
5679;BME280;2862;52.560;13.566;2022-10-16T05:19:46;100490.66;;;14.75;100.00
5679;BME280;2862;52.560;13.566;2022-10-16T05:29:50;100499.19;;;14.71;100.00
5679;BME280;2862;52.560;13.566;2022-10-16T05:39:53;100493.91;;;14.61;100.00
5679;BME280;2862;52.560;13.566;2022-10-16T05:49:58;100505.31;;;14.81;100.00
5679;BME280;2862;52.560;13.566;2022-10-16T06:00:01;100503.91;;;15.03;99.40
5679;BME280;2862;52.560;13.566;2022-10-16T06:10:14;100511.91;;;16.12;90.87
5679;BME280;2862;52.560;13.566;2022-10-16T06:20:17;100528.69;;;15.65;94.34
5679;BME280;2862;52.560;13.566;2022-10-16T06:30:21;100536.25;;;15.61;94.92
5679;BME280;2862;52.560;13.566;2022-10-16T06:40:24;100539.00;;;15.78;93.18
5679;BME280;2862;52.560;13.566;2022-10-16T06:50:29;100556.53;;;15.65;94.32
5679;BME280;2862;52.560;13.566;2022-10-16T07:00:40;100570.25;;;15.54;95.28
5679;BME280;2862;52.560;13.566;2022-10-16T07:10:44;100573.19;;;15.69;94.30
5679;BME280;2862;52.560;13.566;2022-10-16T07:21:09;100596.19;;;16.38;90.78
5679;BME280;2862;52.560;13.566;2022-10-16T07:31:24;100592.31;;;16.98;87.69
5679;BME280;2862;52.560;13.566;2022-10-16T07:41:40;100605.22;;;17.19;85.91
5679;BME280;2862;52.560;13.566;2022-10-16T07:51:48;100609.28;;;17.23;86.17
5679;BME280;2862;52.560;13.566;2022-10-16T08:01:56;100594.41;;;17.19;86.88
5679;BME280;2862;52.560;13.566;2022-10-16T08:12:05;100623.13;;;17.20;87.25
5679;BME280;2862;52.560;13.566;2022-10-16T08:22:07;100648.78;;;17.32;87.73
5679;BME280;2862;52.560;13.566;2022-10-16T08:32:14;100621.38;;;17.43;86.84
5679;BME280;2862;52.560;13.566;2022-10-16T08:42:35;100644.13;;;17.57;86.30
5679;BME280;2862;52.560;13.566;2022-10-16T08:52:44;100650.34;;;17.74;85.86
5679;BME280;2862;52.560;13.566;2022-10-16T09:02:53;100642.19;;;17.82;85.05
5679;BME280;2862;52.560;13.566;2022-10-16T09:13:13;100661.09;;;17.90;85.16
5679;BME280;2862;52.560;13.566;2022-10-16T09:23:19;100672.28;;;18.64;80.90
5679;BME280;2862;52.560;13.566;2022-10-16T09:33:27;100661.88;;;18.76;79.23
5679;BME280;2862;52.560;13.566;2022-10-16T09:43:34;100668.44;;;19.34;76.24
5679;BME280;2862;52.560;13.566;2022-10-16T09:53:44;100674.25;;;19.60;73.68
5679;BME280;2862;52.560;13.566;2022-10-16T10:03:48;100690.16;;;19.63;73.92
5679;BME280;2862;52.560;13.566;2022-10-16T10:14:03;100699.03;;;19.87;73.06
5679;BME280;2862;52.560;13.566;2022-10-16T10:24:10;100696.59;;;19.77;72.51
5679;BME280;2862;52.560;13.566;2022-10-16T10:34:26;100711.84;;;19.78;71.76
5679;BME280;2862;52.560;13.566;2022-10-16T10:44:51;100732.25;;;19.74;71.67
5679;BME280;2862;52.560;13.566;2022-10-16T10:55:09;100724.84;;;19.98;69.10
5679;BME280;2862;52.560;13.566;2022-10-16T11:05:28;100729.75;;;20.24;68.23
5679;BME280;2862;52.560;13.566;2022-10-16T11:15:44;100734.31;;;20.74;66.36
5679;BME280;2862;52.560;13.566;2022-10-16T11:25:57;100739.53;;;20.39;63.59
5679;BME280;2862;52.560;13.566;2022-10-16T11:36:16;100750.34;;;20.33;63.81
5679;BME280;2862;52.560;13.566;2022-10-16T11:46:22;100737.50;;;19.91;64.58
5679;BME280;2862;52.560;13.566;2022-10-16T11:56:29;100746.28;;;19.63;64.88
5679;BME280;2862;52.560;13.566;2022-10-16T12:06:41;100743.47;;;19.71;63.51
5679;BME280;2862;52.560;13.566;2022-10-16T12:17:02;100765.13;;;19.56;62.25
5679;BME280;2862;52.560;13.566;2022-10-16T12:27:23;100776.34;;;19.53;60.30
5679;BME280;2862;52.560;13.566;2022-10-16T12:37:33;100773.31;;;19.71;58.48
5679;BME280;2862;52.560;13.566;2022-10-16T12:47:48;100788.38;;;20.03;57.65
5679;BME280;2862;52.560;13.566;2022-10-16T12:58:09;100795.50;;;20.04;55.06
5679;BME280;2862;52.560;13.566;2022-10-16T13:08:30;100800.75;;;19.91;55.04
5679;BME280;2862;52.560;13.566;2022-10-16T13:18:46;100817.38;;;19.88;54.92
5679;BME280;2862;52.560;13.566;2022-10-16T13:28:50;100828.25;;;20.03;54.95
5679;BME280;2862;52.560;13.566;2022-10-16T13:39:10;100829.09;;;19.74;54.22
5679;BME280;2862;52.560;13.566;2022-10-16T13:49:15;100839.94;;;19.88;55.32
5679;BME280;2862;52.560;13.566;2022-10-16T13:59:27;100827.59;;;20.15;53.78
5679;BME280;2862;52.560;13.566;2022-10-16T14:09:36;100837.16;;;19.97;55.17
5679;BME280;2862;52.560;13.566;2022-10-16T14:19:45;100856.13;;;19.82;54.71
5679;BME280;2862;52.560;13.566;2022-10-16T14:29:49;100859.88;;;19.81;56.02
5679;BME280;2862;52.560;13.566;2022-10-16T14:39:55;100860.50;;;19.68;56.41
5679;BME280;2862;52.560;13.566;2022-10-16T14:49:58;100869.50;;;19.69;56.66
5679;BME280;2862;52.560;13.566;2022-10-16T15:00:03;100887.16;;;19.65;57.22
5679;BME280;2862;52.560;13.566;2022-10-16T15:10:07;100892.44;;;19.58;57.68
5679;BME280;2862;52.560;13.566;2022-10-16T15:20:12;100907.56;;;19.29;58.33
5679;BME280;2862;52.560;13.566;2022-10-16T15:30:15;100908.56;;;19.05;58.46
5679;BME280;2862;52.560;13.566;2022-10-16T15:40:20;100934.06;;;18.88;58.96
5679;BME280;2862;52.560;13.566;2022-10-16T15:50:26;100936.69;;;18.57;59.89
5679;BME280;2862;52.560;13.566;2022-10-16T16:00:31;100971.44;;;18.45;60.16
5679;BME280;2862;52.560;13.566;2022-10-16T16:10:34;100977.22;;;18.26;60.81
5679;BME280;2862;52.560;13.566;2022-10-16T16:20:39;100978.78;;;18.04;61.58
5679;BME280;2862;52.560;13.566;2022-10-16T16:30:41;101003.44;;;17.76;62.12
5679;BME280;2862;52.560;13.566;2022-10-16T16:40:46;101020.47;;;17.61;62.09
5679;BME280;2862;52.560;13.566;2022-10-16T16:50:53;101030.41;;;17.44;62.06
5679;BME280;2862;52.560;13.566;2022-10-16T17:00:58;101054.88;;;17.34;62.04
5679;BME280;2862;52.560;13.566;2022-10-16T17:11:21;101069.88;;;17.20;62.28
5679;BME280;2862;52.560;13.566;2022-10-16T17:21:26;101093.19;;;17.21;62.64
5679;BME280;2862;52.560;13.566;2022-10-16T17:31:32;101106.78;;;17.12;62.61
5679;BME280;2862;52.560;13.566;2022-10-16T17:41:37;101123.13;;;17.02;62.79
5679;BME280;2862;52.560;13.566;2022-10-16T17:51:40;101141.50;;;16.98;63.23
5679;BME280;2862;52.560;13.566;2022-10-16T18:01:44;101141.31;;;16.92;62.68
5679;BME280;2862;52.560;13.566;2022-10-16T18:11:47;101137.22;;;16.88;63.57
5679;BME280;2862;52.560;13.566;2022-10-16T18:21:54;101150.34;;;16.83;63.13
5679;BME280;2862;52.560;13.566;2022-10-16T18:31:57;101165.78;;;16.72;63.48
5679;BME280;2862;52.560;13.566;2022-10-16T18:42:02;101174.34;;;16.50;64.36
5679;BME280;2862;52.560;13.566;2022-10-16T18:52:05;101194.75;;;16.17;66.10
5679;BME280;2862;52.560;13.566;2022-10-16T19:02:10;101210.09;;;15.99;67.21
5679;BME280;2862;52.560;13.566;2022-10-16T19:12:13;101200.09;;;15.81;68.23
5679;BME280;2862;52.560;13.566;2022-10-16T19:22:18;101219.28;;;16.06;67.41
5679;BME280;2862;52.560;13.566;2022-10-16T19:32:43;101215.63;;;15.97;67.63
5679;BME280;2862;52.560;13.566;2022-10-16T19:42:50;101212.38;;;15.93;68.26
5679;BME280;2862;52.560;13.566;2022-10-16T19:52:56;101237.81;;;15.91;68.84
5679;BME280;2862;52.560;13.566;2022-10-16T20:03:03;101236.25;;;15.88;68.87
5679;BME280;2862;52.560;13.566;2022-10-16T20:13:06;101242.41;;;15.81;69.22
5679;BME280;2862;52.560;13.566;2022-10-16T20:23:10;101263.63;;;15.47;70.52
5679;BME280;2862;52.560;13.566;2022-10-16T20:33:14;101288.09;;;15.16;71.62
5679;BME280;2862;52.560;13.566;2022-10-16T20:43:19;101297.75;;;14.99;73.09
5679;BME280;2862;52.560;13.566;2022-10-16T20:53:21;101311.63;;;14.75;74.50
5679;BME280;2862;52.560;13.566;2022-10-16T21:03:25;101298.03;;;14.77;74.99
5679;BME280;2862;52.560;13.566;2022-10-16T21:13:30;101302.56;;;14.76;75.13
5679;BME280;2862;52.560;13.566;2022-10-16T21:23:34;101302.13;;;14.91;74.56
5679;BME280;2862;52.560;13.566;2022-10-16T21:33:37;101308.25;;;14.93;74.50
5679;BME280;2862;52.560;13.566;2022-10-16T21:43:41;101337.41;;;15.07;74.43
5679;BME280;2862;52.560;13.566;2022-10-16T21:53:44;101344.09;;;14.93;75.34
5679;BME280;2862;52.560;13.566;2022-10-16T22:03:49;101365.06;;;14.99;75.45
5679;BME280;2862;52.560;13.566;2022-10-16T22:13:54;101361.78;;;14.96;74.85
5679;BME280;2862;52.560;13.566;2022-10-16T22:23:59;101340.66;;;14.72;76.05
5679;BME280;2862;52.560;13.566;2022-10-16T22:34:03;101345.63;;;14.57;76.22
5679;BME280;2862;52.560;13.566;2022-10-16T22:44:11;101330.50;;;14.35;77.99
5679;BME280;2862;52.560;13.566;2022-10-16T22:54:14;101359.91;;;14.17;77.34
5679;BME280;2862;52.560;13.566;2022-10-16T23:04:19;101367.59;;;14.01;79.44
5679;BME280;2862;52.560;13.566;2022-10-16T23:14:22;101365.97;;;14.19;79.13
5679;BME280;2862;52.560;13.566;2022-10-16T23:24:29;101368.56;;;14.30;78.13
5679;BME280;2862;52.560;13.566;2022-10-16T23:34:32;101364.28;;;14.18;79.79
5679;BME280;2862;52.560;13.566;2022-10-16T23:44:36;101368.97;;;14.26;79.24
5679;BME280;2862;52.560;13.566;2022-10-16T23:54:39;101383.41;;;14.25;79.96
